Avalon Express — WDD7919 — position and weather

sailwx.info

Track history (hours):
 
Tides and Currents Weather Stations Pressure Air Temp Water Temp Dewpoint Dewpoint Depression Visibility Wind Speed Wind Dir Waves Ship Positions

Avalon Express

More information available from US FCC via Universal Licensing System and Coast Guard Vessel Documentation Center.

Last reported at 2014-Jul-23 16:33 UTC. Time now 2014-Jul-25 09:00 UTC.
Position N 33°45' W 118°16'.

Type: High speed craft. MMSI: 367192940.

Date/timePositionNaut miles runAvg speedWind from/ knotsBaromVisibWave heightAir tempDewpointWater temp
2014-Jul-23 16:33N 33°45' W 118°16'0 0.0
2014-Jul-23 15:33N 33°45' W 118°16'2 0.1
2014-Jul-22 19:33N 33°43' W 118°16'21 0.5
2014-Jul-20 22:07N 33°22' W 118°19'1 1.4
2014-Jul-20 21:13N 33°21' W 118°19'22 0.9
2014-Jul-19 19:16N 33°43' W 118°16'1823.4
2014-Jul-19 18:31N 33°25' W 118°18'0 0.4
2014-Jul-19 17:33N 33°25' W 118°18'2017.0
2014-Jul-19 16:25N 33°45' W 118°16'0 0.0
2014-Jul-19 15:32N 33°45' W 118°16'0 0.0
2014-Jul-18 02:23N 33°45' W 118°16'0 0.0
2014-Jul-17 02:13N 33°45' W 118°16'2 1.9
2014-Jul-17 01:23N 33°43' W 118°16'2223.3
2014-Jul-17 00:27N 33°22' W 118°19'20 9.3
2014-Jul-16 22:19N 33°42' W 118°16'21 6.6
2014-Jul-16 19:08N 33°21' W 118°19'13 0.3
2014-Jul-14 18:28N 33°34' W 118°17'11 9.3
2014-Jul-14 17:16N 33°45' W 118°16'0 0.0
2014-Jul-14 00:27N 33°45' W 118°16'0 0.0
2014-Jul-13 23:33N 33°45' W 118°16'1211.6
2014-Jul-13 22:34N 33°33' W 118°17'1312.7
2014-Jul-13 21:33N 33°21' W 118°19'1515.2
2014-Jul-13 20:34N 33°36' W 118°16'9 8.4
2014-Jul-13 19:28N 33°45' W 118°16'2020.3
2014-Jul-13 18:30N 33°25' W 118°18'1 0.6
2014-Jul-13 17:34N 33°26' W 118°19'  
Track history (hours):
 
Tides and Currents Weather Stations Pressure Air Temp Water Temp Dewpoint Dewpoint Depression Visibility Wind Speed Wind Dir Waves Ship Positions

Avalon Express

More information available from US FCC via Universal Licensing System and Coast Guard Vessel Documentation Center.

Last reported at 2014-Jul-23 16:33 UTC. Time now 2014-Jul-25 09:00 UTC.
Position N 33°45' W 118°16'.

Type: High speed craft. MMSI: 367192940.

Date/timePositionNaut miles runAvg speedWind from/ knotsBaromVisibWave heightAir tempDewpointWater temp
2014-Jul-23 16:33N 33°45' W 118°16'0 0.0
2014-Jul-23 15:33N 33°45' W 118°16'2 0.1
2014-Jul-22 19:33N 33°43' W 118°16'21 0.5
2014-Jul-20 22:07N 33°22' W 118°19'1 1.4
2014-Jul-20 21:13N 33°21' W 118°19'22 0.9
2014-Jul-19 19:16N 33°43' W 118°16'1823.4
2014-Jul-19 18:31N 33°25' W 118°18'0 0.4
2014-Jul-19 17:33N 33°25' W 118°18'2017.0
2014-Jul-19 16:25N 33°45' W 118°16'0 0.0
2014-Jul-19 15:32N 33°45' W 118°16'0 0.0
2014-Jul-18 02:23N 33°45' W 118°16'0 0.0
2014-Jul-17 02:13N 33°45' W 118°16'2 1.9
2014-Jul-17 01:23N 33°43' W 118°16'2223.3
2014-Jul-17 00:27N 33°22' W 118°19'20 9.3
2014-Jul-16 22:19N 33°42' W 118°16'21 6.6
2014-Jul-16 19:08N 33°21' W 118°19'13 0.3
2014-Jul-14 18:28N 33°34' W 118°17'11 9.3
2014-Jul-14 17:16N 33°45' W 118°16'0 0.0
2014-Jul-14 00:27N 33°45' W 118°16'0 0.0
2014-Jul-13 23:33N 33°45' W 118°16'1211.6
2014-Jul-13 22:34N 33°33' W 118°17'1312.7
2014-Jul-13 21:33N 33°21' W 118°19'1515.2
2014-Jul-13 20:34N 33°36' W 118°16'9 8.4
2014-Jul-13 19:28N 33°45' W 118°16'2020.3
2014-Jul-13 18:30N 33°25' W 118°18'1 0.6
2014-Jul-13 17:34N 33°26' W 118°19'  

Dump ship's entire track history